Time;durP1;ratioP1;P1;durP2;ratioP2;P2;SDS_P1;SDS_P2;PMS_P1;PMS_P2;Temp;Humidity;BMP_temperature;BMP_pressure;BME280_temperature;BME280_humidity;BME280_pressure;Samples;Min_cycle;Max_cycle;Signal;HPM_P1;HPM_P2
2021/08/15 00:02:11;;;;;;;2.00;1.37;;;20.70;78.10;;;;;;10328152;28;20645;-63
2021/08/15 00:07:35;;;;;;;3.10;1.60;;;20.70;78.10;;;;;;10344057;28;20202;-61
2021/08/15 00:12:57;;;;;;;2.13;1.40;;;20.70;78.10;;;;;;10338807;28;20223;-65
2021/08/15 00:18:19;;;;;;;2.03;1.40;;;20.70;78.10;;;;;;10327394;28;20209;-64
2021/08/15 00:23:43;;;;;;;1.80;1.37;;;20.70;78.10;;;;;;10328499;28;20222;-65
2021/08/15 00:29:05;;;;;;;1.73;1.43;;;20.70;78.10;;;;;;10328527;28;20262;-63
2021/08/15 00:34:28;;;;;;;2.17;1.80;;;20.70;78.10;;;;;;10335235;28;20227;-64
2021/08/15 00:39:51;;;;;;;1.93;1.57;;;20.70;78.10;;;;;;10337376;28;20219;-62
2021/08/15 00:45:14;;;;;;;2.20;1.50;;;20.70;78.10;;;;;;10347172;28;20192;-63
2021/08/15 00:50:36;;;;;;;1.83;1.63;;;20.70;78.10;;;;;;10325698;28;20212;-63
2021/08/15 00:56:00;;;;;;;1.50;1.33;;;20.70;78.10;;;;;;10346751;28;20230;-64
2021/08/15 01:01:22;;;;;;;1.60;1.50;;;20.70;78.20;;;;;;10327599;28;20227;-63
2021/08/15 01:06:44;;;;;;;1.70;1.40;;;20.70;78.10;;;;;;10326074;28;20674;-63
2021/08/15 01:12:08;;;;;;;1.40;1.30;;;20.70;78.10;;;;;;10336414;28;20238;-64
2021/08/15 01:17:31;;;;;;;1.30;1.20;;;20.70;78.20;;;;;;10333580;28;20219;-64
2021/08/15 01:22:53;;;;;;;1.70;1.53;;;20.70;78.10;;;;;;10333507;28;20219;-63
2021/08/15 01:28:18;;;;;;;3.27;1.57;;;20.70;78.10;;;;;;10333849;28;20195;-63
2021/08/15 01:33:41;;;;;;;2.87;1.50;;;20.70;78.10;;;;;;10333653;28;20237;-64
2021/08/15 01:39:03;;;;;;;1.90;1.70;;;20.70;78.10;;;;;;10326722;28;20767;-62
2021/08/15 01:44:27;;;;;;;1.60;1.50;;;20.70;78.10;;;;;;10333188;28;20203;-64
2021/08/15 01:49:49;;;;;;;1.77;1.50;;;20.70;78.10;;;;;;10333111;28;20223;-63
2021/08/15 01:55:12;;;;;;;1.73;1.53;;;20.60;78.10;;;;;;10332205;28;20212;-64
2021/08/15 02:00:37;;;;;;;1.40;1.30;;;20.70;78.10;;;;;;10331227;28;20219;-63
2021/08/15 02:05:59;;;;;;;2.67;1.77;;;20.70;78.10;;;;;;10333043;28;20202;-63
2021/08/15 02:11:21;;;;;;;2.60;1.40;;;20.70;78.70;;;;;;10330873;28;20219;-64
2021/08/15 02:16:45;;;;;;;1.77;1.40;;;20.70;78.80;;;;;;10331982;28;20214;-64
2021/08/15 02:22:07;;;;;;;2.53;1.70;;;20.70;78.20;;;;;;10338762;28;20222;-64
2021/08/15 02:27:29;;;;;;;2.30;1.77;;;20.70;78.10;;;;;;10331968;28;20700;-65
2021/08/15 02:32:53;;;;;;;1.70;1.60;;;20.70;78.10;;;;;;10337760;28;20241;-63
2021/08/15 02:38:15;;;;;;;2.77;1.90;;;20.70;78.10;;;;;;10328412;28;20240;-63
2021/08/15 02:43:37;;;;;;;2.13;1.43;;;20.70;78.10;;;;;;10330078;28;20725;-64
2021/08/15 02:49:01;;;;;;;1.70;1.40;;;20.70;78.10;;;;;;10330855;28;20534;-64
2021/08/15 02:54:23;;;;;;;2.53;1.53;;;20.70;78.10;;;;;;10337789;28;20211;-64
2021/08/15 02:59:45;;;;;;;1.73;1.60;;;20.70;78.10;;;;;;10330690;28;20219;-64
2021/08/15 03:05:10;;;;;;;2.67;1.80;;;20.70;78.10;;;;;;10330246;28;20195;-64
2021/08/15 03:10:32;;;;;;;1.87;1.67;;;20.70;78.20;;;;;;10329858;28;20215;-64
2021/08/15 03:15:55;;;;;;;2.20;1.80;;;20.70;78.10;;;;;;10330630;28;20597;-63
2021/08/15 03:21:18;;;;;;;2.10;1.90;;;20.60;78.10;;;;;;10345663;28;20219;-63
2021/08/15 03:26:43;;;;;;;2.07;1.57;;;20.60;78.10;;;;;;10328911;28;20195;-63
2021/08/15 03:32:06;;;;;;;2.70;1.80;;;20.70;78.10;;;;;;10329373;28;20214;-63
2021/08/15 03:37:30;;;;;;;1.93;1.63;;;20.70;78.10;;;;;;10328059;28;20226;-63
2021/08/15 03:42:52;;;;;;;1.90;1.70;;;20.60;78.10;;;;;;10328986;28;20227;-64
2021/08/15 03:48:14;;;;;;;2.00;1.80;;;20.70;78.10;;;;;;10327015;28;20662;-62
2021/08/15 03:53:37;;;;;;;2.40;1.90;;;20.60;78.10;;;;;;10329583;28;20230;-62
2021/08/15 03:58:59;;;;;;;2.73;1.67;;;20.70;78.10;;;;;;10346689;28;20225;-63
2021/08/15 04:04:21;;;;;;;3.00;1.70;;;20.70;78.10;;;;;;10331342;28;20188;-63
2021/08/15 04:09:45;;;;;;;2.20;1.70;;;20.60;78.00;;;;;;10328050;28;20207;-63
2021/08/15 04:15:08;;;;;;;2.60;1.87;;;20.70;78.10;;;;;;10328782;28;20219;-62
2021/08/15 04:20:30;;;;;;;1.83;1.73;;;20.60;78.10;;;;;;10321061;28;20292;-62
2021/08/15 04:25:53;;;;;;;2.40;1.90;;;20.60;78.10;;;;;;10328341;28;20581;-62
2021/08/15 04:31:16;;;;;;;2.57;2.03;;;20.60;78.10;;;;;;10324981;28;20582;-62
2021/08/15 04:36:38;;;;;;;2.40;1.97;;;20.60;78.10;;;;;;10321437;28;20219;-61
2021/08/15 04:42:01;;;;;;;2.37;1.87;;;20.60;78.10;;;;;;10320346;28;20258;-62
2021/08/15 04:47:23;;;;;;;2.87;1.90;;;20.60;78.10;;;;;;10332131;28;20206;-62
2021/08/15 04:52:45;;;;;;;1.80;1.50;;;20.60;78.00;;;;;;10345013;28;20226;-62
2021/08/15 04:58:09;;;;;;;2.03;1.77;;;20.70;78.00;;;;;;10354541;28;20219;-63
2021/08/15 05:03:31;;;;;;;2.60;1.90;;;20.60;78.00;;;;;;10339270;28;20312;-61
2021/08/15 05:08:53;;;;;;;2.17;1.90;;;20.70;78.00;;;;;;10334617;28;20195;-62
2021/08/15 05:14:16;;;;;;;2.13;1.77;;;20.70;78.00;;;;;;10334742;28;20222;-62
2021/08/15 05:19:38;;;;;;;2.57;1.70;;;20.70;78.00;;;;;;10338862;28;20219;-62
2021/08/15 05:25:00;;;;;;;2.20;1.93;;;20.70;78.00;;;;;;10341746;28;20198;-62
2021/08/15 05:30:25;;;;;;;2.10;1.90;;;20.70;78.00;;;;;;10333530;28;20219;-62
2021/08/15 05:35:47;;;;;;;2.80;2.10;;;20.70;78.00;;;;;;10334347;28;20275;-61
2021/08/15 05:41:09;;;;;;;1.67;1.57;;;20.70;78.00;;;;;;10332776;28;20219;-62
2021/08/15 05:46:32;;;;;;;1.97;1.70;;;20.70;78.00;;;;;;10332532;28;20200;-62
2021/08/15 05:51:54;;;;;;;2.07;1.70;;;20.70;78.00;;;;;;10334758;28;20221;-61
2021/08/15 05:57:16;;;;;;;2.53;1.93;;;20.70;77.90;;;;;;10343082;28;20704;-61
2021/08/15 06:02:41;;;;;;;2.27;1.90;;;20.70;78.00;;;;;;10332753;28;20225;-62
2021/08/15 06:08:04;;;;;;;2.57;1.93;;;20.70;77.90;;;;;;10332544;28;20196;-62
2021/08/15 06:13:26;;;;;;;2.67;2.03;;;20.70;77.90;;;;;;10332714;28;20219;-62
2021/08/15 06:18:49;;;;;;;2.50;1.83;;;20.70;78.00;;;;;;10331057;28;20239;-60
2021/08/15 06:24:11;;;;;;;3.10;1.90;;;20.70;78.00;;;;;;10296550;28;20215;-61
2021/08/15 06:29:33;;;;;;;2.20;1.90;;;20.70;78.00;;;;;;10332382;28;20678;-61
2021/08/15 06:34:57;;;;;;;2.47;1.90;;;20.60;77.90;;;;;;10339283;28;20328;-62
2021/08/15 06:40:20;;;;;;;2.73;2.37;;;20.60;77.90;;;;;;10329048;28;20230;-62
2021/08/15 06:45:44;;;;;;;2.50;1.80;;;20.60;77.90;;;;;;10329954;28;20704;-62
2021/08/15 06:51:07;;;;;;;3.73;2.30;;;20.60;77.90;;;;;;10331195;28;20218;-62
2021/08/15 06:56:29;;;;;;;2.90;2.13;;;20.60;78.00;;;;;;10346584;28;20598;-62
2021/08/15 07:01:51;;;;;;;2.07;1.83;;;20.60;78.00;;;;;;10324796;28;20596;-62
2021/08/15 07:07:15;;;;;;;2.50;2.20;;;20.60;78.00;;;;;;10328412;28;20700;-63
2021/08/15 07:12:37;;;;;;;2.57;2.07;;;20.60;78.00;;;;;;10330058;28;20219;-62
2021/08/15 07:17:59;;;;;;;1.73;1.63;;;20.60;78.00;;;;;;10328770;28;20222;-63
2021/08/15 07:23:23;;;;;;;2.50;1.93;;;20.60;78.00;;;;;;10352898;28;20225;-62
2021/08/15 07:28:45;;;;;;;2.97;2.17;;;20.60;78.00;;;;;;10370259;28;20684;-63
2021/08/15 07:34:07;;;;;;;3.40;1.90;;;20.60;78.00;;;;;;10289777;28;20216;-63
2021/08/15 07:39:31;;;;;;;2.77;2.23;;;20.60;78.00;;;;;;10320673;28;20618;-63
2021/08/15 07:44:54;;;;;;;3.17;2.07;;;20.60;78.00;;;;;;10333053;28;20205;-63
2021/08/15 07:50:16;;;;;;;2.67;2.00;;;20.60;78.00;;;;;;10343598;28;20703;-62
2021/08/15 07:55:40;;;;;;;2.17;1.83;;;20.60;78.00;;;;;;10334689;28;20696;-63
2021/08/15 08:01:02;;;;;;;2.00;1.80;;;20.60;78.00;;;;;;10344209;28;20226;-61
2021/08/15 08:06:24;;;;;;;3.57;2.00;;;20.60;78.00;;;;;;10328245;28;20199;-62
2021/08/15 08:11:49;;;;;;;3.00;2.30;;;20.60;78.00;;;;;;10328842;28;20226;-63
2021/08/15 08:17:12;;;;;;;3.20;2.00;;;20.60;78.00;;;;;;10329219;28;20225;-62
2021/08/15 08:22:34;;;;;;;2.97;2.03;;;20.60;78.00;;;;;;10334327;28;20223;-62
2021/08/15 08:27:58;;;;;;;2.80;2.03;;;20.60;78.10;;;;;;10337089;28;20199;-60
2021/08/15 08:33:20;;;;;;;5.15;2.70;;;20.60;78.20;;;;;;10331098;28;20424;-57
2021/08/15 08:38:42;;;;;;;3.70;2.13;;;21.20;76.60;;;;;;10355566;28;20241;-57
2021/08/15 08:44:07;;;;;;;4.13;2.00;;;20.90;77.30;;;;;;10359733;28;20218;-57
2021/08/15 08:49:30;;;;;;;3.60;2.10;;;20.80;77.80;;;;;;10368611;28;20203;-57
2021/08/15 08:54:53;;;;;;;4.40;2.30;;;20.70;78.10;;;;;;10336366;28;20718;-57
2021/08/15 09:00:19;;;;;;;3.63;2.10;;;20.60;78.20;;;;;;10375644;28;20712;-57
2021/08/15 09:05:42;;;;;;;2.70;2.20;;;20.60;78.30;;;;;;10376097;28;20759;-57
2021/08/15 09:11:12;;;;;;;2.47;1.73;;;20.60;78.30;;;;;;10360053;28;20705;-54
2021/08/15 09:22:18;;;;;;;7.93;2.53;;;20.60;78.40;;;;;;10525070;27;20565;-56
2021/08/15 09:27:45;;;;;;;4.83;2.23;;;20.60;78.30;;;;;;10475303;28;20189;-56
2021/08/15 09:33:10;;;;;;;8.35;4.30;;;20.60;78.50;;;;;;10478550;28;20407;-54
2021/08/15 09:38:43;;;;;;;6.60;3.50;;;21.10;77.40;;;;;;10489386;28;20237;-53
2021/08/15 09:44:22;;;;;;;5.33;2.90;;;20.90;77.40;;;;;;10529860;28;20345;-53
2021/08/15 09:49:45;;;;;;;4.80;3.07;;;20.90;77.70;;;;;;10563110;28;20695;-57
2021/08/15 09:55:09;;;;;;;5.33;3.40;;;20.80;78.10;;;;;;10529614;28;20246;-56
2021/08/15 10:00:32;;;;;;;3.40;3.10;;;20.70;78.20;;;;;;10527237;28;20698;-54
2021/08/15 10:05:56;;;;;;;4.80;3.30;;;20.70;78.40;;;;;;10527236;28;20200;-57
2021/08/15 10:11:20;;;;;;;5.30;3.30;;;20.60;78.40;;;;;;10526470;28;20301;-52
2021/08/15 10:16:47;;;;;;;5.60;3.43;;;20.60;78.50;;;;;;10526256;28;20211;-56
2021/08/15 10:22:11;;;;;;;4.03;2.90;;;20.60;78.50;;;;;;10526552;28;20208;-55
2021/08/15 10:27:50;;;;;;;5.07;2.80;;;20.60;78.50;;;;;;10532984;28;20567;-59
2021/08/15 10:33:21;;;;;;;5.30;2.80;;;20.60;78.40;;;;;;10499630;28;20212;-61
2021/08/15 10:38:43;;;;;;;4.20;2.80;;;20.60;78.50;;;;;;10492709;28;20629;-59
2021/08/15 10:44:06;;;;;;;4.73;3.13;;;20.60;78.60;;;;;;10489063;28;20227;-61
2021/08/15 10:49:47;;;;;;;3.57;2.53;;;20.60;78.70;;;;;;10494756;28;20195;-60
2021/08/15 10:55:15;;;;;;;4.33;3.20;;;20.60;78.50;;;;;;10527358;28;20199;-61
2021/08/15 11:00:48;;;;;;;5.17;2.70;;;20.60;78.60;;;;;;10500498;28;20461;-61
2021/08/15 11:06:48;;;;;;;2.73;2.47;;;20.60;78.50;;;;;;10491242;28;20199;-60
2021/08/15 11:12:14;;;;;;;5.13;2.10;;;20.60;78.40;;;;;;10490976;28;20327;-61
2021/08/15 11:17:39;;;;;;;3.00;2.50;;;20.60;78.60;;;;;;10490706;28;20204;-61
2021/08/15 11:23:25;;;;;;;3.83;2.27;;;20.60;78.60;;;;;;10483090;28;20213;-60
2021/08/15 11:28:48;;;;;;;3.23;2.40;;;20.60;78.50;;;;;;10462884;28;20617;-59
2021/08/15 11:34:11;;;;;;;3.87;2.97;;;20.60;78.70;;;;;;10488747;28;20216;-61
2021/08/15 11:39:35;;;;;;;3.23;2.30;;;20.60;78.70;;;;;;10488900;28;20212;-61
2021/08/15 11:44:59;;;;;;;4.17;2.93;;;20.60;78.80;;;;;;10473979;28;20212;-61
2021/08/15 11:50:23;;;;;;;3.50;2.63;;;20.60;78.80;;;;;;10481532;28;20211;-60
2021/08/15 11:55:45;;;;;;;3.43;2.40;;;20.60;78.80;;;;;;10485819;28;20203;-60
2021/08/15 12:01:08;;;;;;;2.83;2.30;;;20.60;78.80;;;;;;10487371;28;20220;-61
2021/08/15 12:06:33;;;;;;;3.67;2.80;;;20.60;78.90;;;;;;10486490;28;20196;-63
2021/08/15 12:11:56;;;;;;;4.10;2.50;;;20.60;78.80;;;;;;10486293;28;20238;-60
2021/08/15 12:17:21;;;;;;;5.00;3.10;;;20.60;78.80;;;;;;10484782;28;20204;-59
2021/08/15 12:22:44;;;;;;;4.13;2.47;;;20.60;78.90;;;;;;10485282;28;20216;-61
2021/08/15 12:28:11;;;;;;;3.83;2.50;;;20.60;78.90;;;;;;10478961;28;20197;-61
2021/08/15 12:33:34;;;;;;;4.83;3.27;;;20.60;78.90;;;;;;10477116;28;20719;-60
2021/08/15 12:39:05;;;;;;;4.77;2.80;;;20.60;78.80;;;;;;10516836;28;20212;-61
2021/08/15 12:44:28;;;;;;;3.83;2.90;;;20.60;78.90;;;;;;10489691;28;20671;-61
2021/08/15 12:49:53;;;;;;;3.73;2.87;;;20.60;78.90;;;;;;10479525;28;20228;-60
2021/08/15 12:55:25;;;;;;;2.20;2.00;;;20.60;78.90;;;;;;10492398;28;20200;-61
2021/08/15 13:00:49;;;;;;;4.60;2.90;;;20.60;78.90;;;;;;10527776;28;20222;-61
2021/08/15 13:06:12;;;;;;;4.03;2.63;;;20.60;78.90;;;;;;10532783;28;20200;-61
2021/08/15 13:11:35;;;;;;;3.47;2.53;;;20.60;78.90;;;;;;10514622;28;20204;-60
2021/08/15 13:16:58;;;;;;;6.30;2.97;;;20.60;78.90;;;;;;10490647;28;20204;-61
2021/08/15 13:22:20;;;;;;;4.03;2.53;;;20.60;79.00;;;;;;10487428;28;20268;-61
2021/08/15 13:27:44;;;;;;;3.20;2.37;;;20.60;79.00;;;;;;10489026;28;20197;-60
2021/08/15 13:33:07;;;;;;;3.60;2.70;;;20.60;79.00;;;;;;10509105;28;20215;-60
2021/08/15 13:38:29;;;;;;;4.10;2.60;;;20.60;78.90;;;;;;10488846;28;20238;-61
2021/08/15 13:43:52;;;;;;;3.87;2.70;;;20.60;79.30;;;;;;10490305;28;20224;-61
2021/08/15 13:49:14;;;;;;;3.03;2.40;;;20.60;78.70;;;;;;10484334;28;20215;-61
2021/08/15 13:54:36;;;;;;;3.83;2.50;;;20.60;78.70;;;;;;10482110;28;20572;-61
2021/08/15 14:00:00;;;;;;;3.00;2.50;;;20.60;78.70;;;;;;10481390;28;20217;-61
2021/08/15 14:05:22;;;;;;;4.17;3.10;;;20.60;78.60;;;;;;10484432;28;20240;-61
2021/08/15 14:10:45;;;;;;;4.20;2.57;;;20.60;78.60;;;;;;10490060;28;20219;-61
2021/08/15 14:16:09;;;;;;;3.90;2.60;;;20.60;78.60;;;;;;10489905;28;20203;-62
2021/08/15 14:21:31;;;;;;;3.20;2.50;;;20.60;78.70;;;;;;10489867;28;20221;-60
2021/08/15 14:26:53;;;;;;;4.27;2.67;;;20.60;78.70;;;;;;10493406;28;20208;-59
2021/08/15 14:32:17;;;;;;;5.10;2.67;;;20.60;78.70;;;;;;10473742;28;20227;-61
2021/08/15 14:37:39;;;;;;;4.40;2.80;;;20.60;78.70;;;;;;10472324;28;20676;-61
2021/08/15 14:43:01;;;;;;;3.67;2.70;;;20.60;78.70;;;;;;10491893;28;20212;-61
2021/08/15 14:48:25;;;;;;;4.40;2.87;;;20.60;78.70;;;;;;10493929;28;20196;-60
2021/08/15 14:53:47;;;;;;;4.83;2.97;;;20.60;78.80;;;;;;10487783;28;20271;-61
2021/08/15 14:59:10;;;;;;;5.10;2.80;;;20.60;78.80;;;;;;10492511;28;20211;-61
2021/08/15 15:04:33;;;;;;;4.33;2.67;;;20.60;78.80;;;;;;10488706;28;20687;-61
2021/08/15 15:09:55;;;;;;;3.30;2.77;;;20.60;78.80;;;;;;10489903;28;20223;-61
2021/08/15 15:15:17;;;;;;;3.60;2.50;;;20.60;78.80;;;;;;10486565;28;20789;-61
2021/08/15 15:20:41;;;;;;;4.53;3.13;;;20.60;78.80;;;;;;10486958;28;20220;-61
2021/08/15 15:26:03;;;;;;;4.37;3.00;;;20.60;78.80;;;;;;10472846;28;20208;-61
2021/08/15 15:31:25;;;;;;;3.20;2.80;;;20.60;78.80;;;;;;10468938;28;20223;-58
2021/08/15 15:36:49;;;;;;;3.57;2.70;;;20.60;78.80;;;;;;10483859;28;20398;-61
2021/08/15 15:42:11;;;;;;;3.63;2.60;;;20.60;78.90;;;;;;10485721;28;20587;-61
2021/08/15 15:47:33;;;;;;;4.67;2.57;;;20.60;78.80;;;;;;10486611;28;20671;-61
2021/08/15 15:52:56;;;;;;;3.47;2.73;;;20.60;78.80;;;;;;10488335;28;20296;-61
2021/08/15 15:58:18;;;;;;;3.33;2.70;;;20.60;78.80;;;;;;10498805;28;20737;-59
2021/08/15 16:03:40;;;;;;;3.90;2.77;;;20.60;78.80;;;;;;10522055;28;20281;-60
2021/08/15 16:09:07;;;;;;;3.13;2.40;;;20.60;78.80;;;;;;10488824;28;20199;-60
2021/08/15 16:14:30;;;;;;;3.60;2.90;;;20.60;78.80;;;;;;10488180;28;20188;-61
2021/08/15 16:19:52;;;;;;;4.43;2.80;;;20.60;78.80;;;;;;10487729;28;20212;-60
2021/08/15 16:25:15;;;;;;;4.23;2.70;;;20.60;78.80;;;;;;10487032;28;20209;-60
2021/08/15 16:30:38;;;;;;;2.70;2.20;;;20.60;78.80;;;;;;10487390;28;20204;-61
2021/08/15 16:36:00;;;;;;;3.17;2.80;;;20.60;78.80;;;;;;10486613;28;20211;-60
2021/08/15 16:41:23;;;;;;;3.60;2.60;;;20.60;78.80;;;;;;10488315;28;20599;-60
2021/08/15 16:46:48;;;;;;;4.30;2.70;;;20.60;78.70;;;;;;10487347;28;20200;-59
2021/08/15 16:52:10;;;;;;;2.50;2.23;;;20.60;78.70;;;;;;10491096;28;20406;-61
2021/08/15 16:57:33;;;;;;;3.90;2.97;;;20.60;78.70;;;;;;10502683;28;20211;-59
2021/08/15 17:02:55;;;;;;;3.00;2.40;;;20.60;78.70;;;;;;10532191;28;20231;-61
2021/08/15 17:08:17;;;;;;;3.57;2.57;;;20.60;79.30;;;;;;10530981;28;20192;-60
2021/08/15 17:13:41;;;;;;;3.17;2.57;;;20.60;78.70;;;;;;10491480;28;20221;-61
2021/08/15 17:19:04;;;;;;;3.17;2.20;;;20.60;78.70;;;;;;10486716;28;20295;-59
2021/08/15 17:24:26;;;;;;;2.67;2.37;;;20.60;78.70;;;;;;10474045;28;20200;-60
2021/08/15 17:29:49;;;;;;;2.80;2.60;;;20.60;78.80;;;;;;10485829;28;20694;-60
2021/08/15 17:35:12;;;;;;;3.20;2.57;;;20.60;78.80;;;;;;10496918;28;20192;-60
2021/08/15 17:40:34;;;;;;;3.43;2.57;;;20.60;78.80;;;;;;10468320;28;20218;-60
2021/08/15 17:45:57;;;;;;;3.00;2.50;;;20.60;79.30;;;;;;10535938;28;20206;-61
2021/08/15 17:51:20;;;;;;;3.03;2.50;;;20.60;78.80;;;;;;10534018;28;20250;-59
2021/08/15 17:56:42;;;;;;;4.47;2.70;;;20.60;78.80;;;;;;10501798;28;20591;-59
2021/08/15 18:02:05;;;;;;;3.07;2.50;;;20.60;78.80;;;;;;10482059;28;20226;-59
2021/08/15 18:07:27;;;;;;;3.20;2.53;;;20.60;78.90;;;;;;10534128;28;20199;-59
2021/08/15 18:12:49;;;;;;;3.15;2.80;;;20.60;78.80;;;;;;10502852;28;20410;-58
2021/08/15 18:18:13;;;;;;;2.70;2.50;;;21.10;77.00;;;;;;10493713;28;20210;-59
2021/08/15 18:23:35;;;;;;;3.53;2.70;;;20.90;77.70;;;;;;10497671;28;20694;-59
2021/08/15 18:28:57;;;;;;;2.33;2.13;;;20.80;78.20;;;;;;10494929;28;20227;-59
2021/08/15 18:34:21;;;;;;;3.87;2.63;;;20.70;78.40;;;;;;10495401;28;20224;-56
2021/08/15 18:39:43;;;;;;;3.07;2.47;;;20.70;78.60;;;;;;10495483;28;20223;-56
2021/08/15 18:45:06;;;;;;;2.93;2.30;;;20.70;78.80;;;;;;10495477;28;20204;-58
2021/08/15 18:50:30;;;;;;;2.37;2.17;;;20.70;78.80;;;;;;10494551;28;20260;-59
2021/08/15 18:55:53;;;;;;;2.40;2.20;;;20.70;79.00;;;;;;10503286;28;20200;-57
2021/08/15 19:01:15;;;;;;;2.43;2.23;;;20.70;79.00;;;;;;10497602;28;20238;-57
2021/08/15 19:06:38;;;;;;;4.70;2.40;;;20.70;79.00;;;;;;10499009;28;20651;-57
2021/08/15 19:12:01;;;;;;;2.70;2.40;;;20.70;79.10;;;;;;10493944;28;20213;-58
2021/08/15 19:17:23;;;;;;;2.27;2.07;;;20.70;79.10;;;;;;10491774;28;20671;-57
2021/08/15 19:22:46;;;;;;;2.17;1.97;;;20.70;79.10;;;;;;10492794;28;20305;-56
2021/08/15 19:28:09;;;;;;;3.90;2.40;;;20.70;79.20;;;;;;10494536;28;20215;-56
2021/08/15 19:33:31;;;;;;;2.37;2.10;;;20.70;79.20;;;;;;10496050;28;20234;-55
2021/08/15 19:38:54;;;;;;;3.23;2.70;;;20.70;79.20;;;;;;10495694;28;20204;-57
2021/08/15 19:44:16;;;;;;;2.83;2.37;;;20.70;79.20;;;;;;10495487;28;20212;-55
2021/08/15 19:49:38;;;;;;;2.50;2.20;;;20.70;79.20;;;;;;10494757;28;20192;-57
2021/08/15 19:55:02;;;;;;;2.93;2.13;;;20.70;79.20;;;;;;10508363;28;20201;-58
2021/08/15 20:00:24;;;;;;;3.07;2.40;;;20.70;79.20;;;;;;10507734;28;20717;-58
2021/08/15 20:05:46;;;;;;;2.40;2.20;;;20.70;79.20;;;;;;10507079;28;20196;-59
2021/08/15 20:11:10;;;;;;;3.67;2.20;;;20.70;79.20;;;;;;10490654;28;20204;-58
2021/08/15 20:16:32;;;;;;;2.60;2.00;;;20.70;79.20;;;;;;10491921;28;20191;-56
2021/08/15 20:21:54;;;;;;;3.67;2.20;;;20.70;79.20;;;;;;10492625;28;20590;-57
2021/08/15 20:27:17;;;;;;;2.83;2.27;;;20.70;79.20;;;;;;10491159;28;20204;-58
2021/08/15 20:32:40;;;;;;;2.33;2.00;;;20.70;79.20;;;;;;10488963;28;20223;-58
2021/08/15 20:38:03;;;;;;;2.30;1.97;;;20.70;79.20;;;;;;10490783;28;20192;-58
2021/08/15 20:43:27;;;;;;;2.40;1.90;;;20.70;79.20;;;;;;10490494;28;20243;-57
2021/08/15 20:48:50;;;;;;;2.40;1.93;;;20.70;79.20;;;;;;10490726;28;20188;-55
2021/08/15 20:54:12;;;;;;;2.80;2.00;;;20.70;79.20;;;;;;10496065;28;20216;-56
2021/08/15 20:59:35;;;;;;;2.47;2.10;;;20.70;79.20;;;;;;10493163;28;20566;-55
2021/08/15 21:04:57;;;;;;;2.00;1.80;;;20.70;79.20;;;;;;10494684;28;20189;-56
2021/08/15 21:10:19;;;;;;;2.50;1.77;;;20.70;79.20;;;;;;10490811;28;20223;-58
2021/08/15 21:15:43;;;;;;;2.23;1.90;;;20.70;79.20;;;;;;10488571;28;20192;-57
2021/08/15 21:21:06;;;;;;;2.17;1.97;;;20.70;79.30;;;;;;10468945;28;20219;-56
2021/08/15 21:26:31;;;;;;;2.57;2.13;;;20.70;79.20;;;;;;10448857;28;20660;-57
2021/08/15 21:31:54;;;;;;;2.17;1.87;;;20.70;79.20;;;;;;10474522;28;20239;-58
2021/08/15 21:37:17;;;;;;;1.63;1.53;;;20.70;79.20;;;;;;10489366;28;20582;-56
2021/08/15 21:42:39;;;;;;;2.60;1.97;;;20.70;79.20;;;;;;10488613;28;20216;-59
2021/08/15 21:48:03;;;;;;;2.00;1.80;;;20.70;79.20;;;;;;10489663;28;20200;-60
2021/08/15 21:53:25;;;;;;;2.27;2.00;;;20.70;79.20;;;;;;10491178;28;20287;-59
2021/08/15 21:58:48;;;;;;;2.73;2.10;;;20.70;79.20;;;;;;10491011;28;20196;-58
2021/08/15 22:04:11;;;;;;;2.17;1.97;;;20.70;79.20;;;;;;10490109;28;20224;-58
2021/08/15 22:09:33;;;;;;;2.70;2.17;;;20.70;79.20;;;;;;10492224;28;20203;-57
2021/08/15 22:14:55;;;;;;;1.97;1.70;;;20.70;79.20;;;;;;10488658;28;20189;-57
2021/08/15 22:20:19;;;;;;;2.20;1.80;;;20.70;79.20;;;;;;10489360;28;20216;-56
2021/08/15 22:25:42;;;;;;;1.87;1.63;;;20.70;79.20;;;;;;10491457;28;20220;-57
2021/08/15 22:31:04;;;;;;;3.17;2.03;;;20.70;79.20;;;;;;10497212;28;20216;-55
2021/08/15 22:36:27;;;;;;;2.20;2.00;;;20.70;79.10;;;;;;10520857;28;20196;-57
2021/08/15 22:41:50;;;;;;;2.03;1.50;;;20.70;79.10;;;;;;10495917;28;20231;-59
2021/08/15 22:47:12;;;;;;;2.17;1.97;;;20.70;79.10;;;;;;10512481;28;20196;-59
2021/08/15 22:52:35;;;;;;;2.13;1.87;;;20.70;79.10;;;;;;10528762;28;20208;-57
2021/08/15 22:57:57;;;;;;;2.23;1.90;;;20.70;79.10;;;;;;10494979;28;20203;-59
2021/08/15 23:03:19;;;;;;;1.80;1.60;;;20.70;79.10;;;;;;10504122;28;20220;-57
2021/08/15 23:08:43;;;;;;;2.07;1.90;;;20.70;79.10;;;;;;10496697;28;20197;-58
2021/08/15 23:14:06;;;;;;;1.80;1.70;;;20.70;79.10;;;;;;10491016;28;20236;-57
2021/08/15 23:19:28;;;;;;;2.07;1.70;;;20.70;79.10;;;;;;10537993;28;20199;-58
2021/08/15 23:24:52;;;;;;;2.03;1.70;;;20.70;79.70;;;;;;10537640;28;20195;-59
2021/08/15 23:30:15;;;;;;;1.93;1.80;;;20.70;79.10;;;;;;10537317;28;20211;-57
2021/08/15 23:35:37;;;;;;;1.63;1.53;;;20.70;79.10;;;;;;10537076;28;20200;-58
2021/08/15 23:41:00;;;;;;;1.60;1.50;;;20.70;79.10;;;;;;10529187;28;20222;-58
2021/08/15 23:46:23;;;;;;;1.70;1.60;;;20.70;79.10;;;;;;10538305;28;20196;-58
2021/08/15 23:51:45;;;;;;;1.70;1.57;;;20.70;79.10;;;;;;10537540;28;20212;-57
2021/08/15 23:57:09;;;;;;;1.80;1.70;;;20.70;79.10;;;;;;10537258;28;20196;-58
